sensor_id;sensor_type;location;lat;lon;timestamp;P1;durP1;ratioP1;P2;durP2;ratioP2
17864;SDS011;9058;52.018;4.202;2024-03-22T00:01:52;53.55;;;23.73;;
17864;SDS011;9058;52.018;4.202;2024-03-22T00:04:17;51.80;;;25.52;;
17864;SDS011;9058;52.018;4.202;2024-03-22T00:06:43;61.70;;;27.25;;
17864;SDS011;9058;52.018;4.202;2024-03-22T00:09:09;53.85;;;25.08;;
17864;SDS011;9058;52.018;4.202;2024-03-22T00:11:35;65.85;;;26.95;;
17864;SDS011;9058;52.018;4.202;2024-03-22T00:14:01;59.70;;;27.92;;
17864;SDS011;9058;52.018;4.202;2024-03-22T00:16:26;55.72;;;26.25;;
17864;SDS011;9058;52.018;4.202;2024-03-22T00:18:51;61.33;;;26.52;;
17864;SDS011;9058;52.018;4.202;2024-03-22T00:21:16;41.55;;;20.88;;
17864;SDS011;9058;52.018;4.202;2024-03-22T00:23:42;58.38;;;24.02;;
17864;SDS011;9058;52.018;4.202;2024-03-22T00:26:08;53.20;;;24.02;;
17864;SDS011;9058;52.018;4.202;2024-03-22T00:28:33;44.38;;;23.23;;
17864;SDS011;9058;52.018;4.202;2024-03-22T00:30:59;48.63;;;23.77;;
17864;SDS011;9058;52.018;4.202;2024-03-22T00:33:24;55.38;;;24.88;;
17864;SDS011;9058;52.018;4.202;2024-03-22T00:35:49;55.55;;;25.83;;
17864;SDS011;9058;52.018;4.202;2024-03-22T00:38:15;56.42;;;24.48;;
17864;SDS011;9058;52.018;4.202;2024-03-22T00:40:40;49.35;;;25.55;;
17864;SDS011;9058;52.018;4.202;2024-03-22T00:43:06;56.97;;;25.48;;
17864;SDS011;9058;52.018;4.202;2024-03-22T00:45:31;57.85;;;26.63;;
17864;SDS011;9058;52.018;4.202;2024-03-22T00:47:56;59.75;;;26.65;;
17864;SDS011;9058;52.018;4.202;2024-03-22T00:50:22;44.38;;;23.17;;
17864;SDS011;9058;52.018;4.202;2024-03-22T00:52:47;43.10;;;21.13;;
17864;SDS011;9058;52.018;4.202;2024-03-22T00:55:12;36.03;;;17.90;;
17864;SDS011;9058;52.018;4.202;2024-03-22T00:57:37;30.10;;;16.88;;
17864;SDS011;9058;52.018;4.202;2024-03-22T01:00:03;27.00;;;17.38;;
17864;SDS011;9058;52.018;4.202;2024-03-22T01:02:29;22.98;;;14.68;;
17864;SDS011;9058;52.018;4.202;2024-03-22T01:04:54;24.63;;;14.98;;
17864;SDS011;9058;52.018;4.202;2024-03-22T01:07:20;21.48;;;13.30;;
17864;SDS011;9058;52.018;4.202;2024-03-22T01:09:45;23.00;;;11.65;;
17864;SDS011;9058;52.018;4.202;2024-03-22T01:12:10;15.13;;;12.30;;
17864;SDS011;9058;52.018;4.202;2024-03-22T01:14:35;16.23;;;11.48;;
17864;SDS011;9058;52.018;4.202;2024-03-22T01:17:01;17.17;;;13.15;;
17864;SDS011;9058;52.018;4.202;2024-03-22T01:19:26;22.00;;;13.30;;
17864;SDS011;9058;52.018;4.202;2024-03-22T01:21:51;21.20;;;12.95;;
17864;SDS011;9058;52.018;4.202;2024-03-22T01:24:17;19.30;;;13.50;;
17864;SDS011;9058;52.018;4.202;2024-03-22T01:26:42;21.50;;;14.57;;
17864;SDS011;9058;52.018;4.202;2024-03-22T01:29:07;26.08;;;15.07;;
17864;SDS011;9058;52.018;4.202;2024-03-22T01:31:32;26.17;;;15.02;;
17864;SDS011;9058;52.018;4.202;2024-03-22T01:33:58;19.00;;;13.55;;
17864;SDS011;9058;52.018;4.202;2024-03-22T01:36:23;26.00;;;14.63;;
17864;SDS011;9058;52.018;4.202;2024-03-22T01:38:48;24.25;;;14.75;;
17864;SDS011;9058;52.018;4.202;2024-03-22T01:41:14;22.52;;;14.85;;
17864;SDS011;9058;52.018;4.202;2024-03-22T01:43:39;19.88;;;12.73;;
17864;SDS011;9058;52.018;4.202;2024-03-22T01:46:05;21.17;;;13.20;;
17864;SDS011;9058;52.018;4.202;2024-03-22T01:48:32;28.30;;;14.43;;
17864;SDS011;9058;52.018;4.202;2024-03-22T01:50:58;21.13;;;13.93;;
17864;SDS011;9058;52.018;4.202;2024-03-22T01:53:23;25.63;;;14.63;;
17864;SDS011;9058;52.018;4.202;2024-03-22T01:55:48;32.17;;;15.27;;
17864;SDS011;9058;52.018;4.202;2024-03-22T01:58:14;27.23;;;14.43;;
17864;SDS011;9058;52.018;4.202;2024-03-22T02:00:39;24.55;;;13.50;;
17864;SDS011;9058;52.018;4.202;2024-03-22T02:03:04;25.95;;;14.48;;
17864;SDS011;9058;52.018;4.202;2024-03-22T02:05:30;23.90;;;13.23;;
17864;SDS011;9058;52.018;4.202;2024-03-22T02:07:55;26.33;;;14.38;;
17864;SDS011;9058;52.018;4.202;2024-03-22T02:10:20;23.30;;;13.63;;
17864;SDS011;9058;52.018;4.202;2024-03-22T02:12:46;25.85;;;13.80;;
17864;SDS011;9058;52.018;4.202;2024-03-22T02:15:11;18.00;;;12.07;;
17864;SDS011;9058;52.018;4.202;2024-03-22T02:17:36;20.58;;;12.05;;
17864;SDS011;9058;52.018;4.202;2024-03-22T02:20:02;27.75;;;13.05;;
17864;SDS011;9058;52.018;4.202;2024-03-22T02:22:29;19.40;;;12.20;;
17864;SDS011;9058;52.018;4.202;2024-03-22T02:24:54;25.85;;;11.45;;
17864;SDS011;9058;52.018;4.202;2024-03-22T02:27:19;22.17;;;11.90;;
17864;SDS011;9058;52.018;4.202;2024-03-22T02:29:45;23.25;;;11.68;;
17864;SDS011;9058;52.018;4.202;2024-03-22T02:32:10;22.10;;;10.57;;
17864;SDS011;9058;52.018;4.202;2024-03-22T02:34:36;22.10;;;11.20;;
17864;SDS011;9058;52.018;4.202;2024-03-22T02:37:01;27.23;;;13.48;;
17864;SDS011;9058;52.018;4.202;2024-03-22T02:39:27;22.25;;;11.65;;
17864;SDS011;9058;52.018;4.202;2024-03-22T02:41:53;30.27;;;14.02;;
17864;SDS011;9058;52.018;4.202;2024-03-22T02:44:19;24.75;;;11.82;;
17864;SDS011;9058;52.018;4.202;2024-03-22T02:46:44;24.88;;;11.55;;
17864;SDS011;9058;52.018;4.202;2024-03-22T02:49:09;23.02;;;11.38;;
17864;SDS011;9058;52.018;4.202;2024-03-22T02:51:34;18.55;;;10.18;;
17864;SDS011;9058;52.018;4.202;2024-03-22T02:54:00;19.63;;;10.07;;
17864;SDS011;9058;52.018;4.202;2024-03-22T02:56:25;20.45;;;10.65;;
17864;SDS011;9058;52.018;4.202;2024-03-22T02:58:51;21.63;;;11.48;;
17864;SDS011;9058;52.018;4.202;2024-03-22T03:01:17;18.80;;;11.57;;
17864;SDS011;9058;52.018;4.202;2024-03-22T03:03:42;17.35;;;10.95;;
17864;SDS011;9058;52.018;4.202;2024-03-22T03:06:07;20.10;;;10.35;;
17864;SDS011;9058;52.018;4.202;2024-03-22T03:08:33;22.50;;;11.75;;
17864;SDS011;9058;52.018;4.202;2024-03-22T03:10:58;22.77;;;11.88;;
17864;SDS011;9058;52.018;4.202;2024-03-22T03:13:24;20.85;;;10.98;;
17864;SDS011;9058;52.018;4.202;2024-03-22T03:15:49;22.23;;;11.38;;
17864;SDS011;9058;52.018;4.202;2024-03-22T03:18:14;23.88;;;10.80;;
17864;SDS011;9058;52.018;4.202;2024-03-22T03:20:40;23.30;;;11.70;;
17864;SDS011;9058;52.018;4.202;2024-03-22T03:23:05;20.48;;;11.13;;
17864;SDS011;9058;52.018;4.202;2024-03-22T03:25:30;24.23;;;13.07;;
17864;SDS011;9058;52.018;4.202;2024-03-22T03:27:55;26.15;;;11.10;;
17864;SDS011;9058;52.018;4.202;2024-03-22T03:30:21;28.30;;;11.27;;
17864;SDS011;9058;52.018;4.202;2024-03-22T03:32:46;26.35;;;10.68;;
17864;SDS011;9058;52.018;4.202;2024-03-22T03:35:11;21.88;;;10.18;;
17864;SDS011;9058;52.018;4.202;2024-03-22T03:37:36;26.73;;;10.35;;
17864;SDS011;9058;52.018;4.202;2024-03-22T03:40:02;37.90;;;12.80;;
17864;SDS011;9058;52.018;4.202;2024-03-22T03:42:27;23.40;;;11.18;;
17864;SDS011;9058;52.018;4.202;2024-03-22T03:44:52;22.42;;;11.68;;
17864;SDS011;9058;52.018;4.202;2024-03-22T03:47:18;23.95;;;11.45;;
17864;SDS011;9058;52.018;4.202;2024-03-22T03:49:44;34.15;;;11.73;;
17864;SDS011;9058;52.018;4.202;2024-03-22T03:52:10;19.27;;;11.73;;
17864;SDS011;9058;52.018;4.202;2024-03-22T03:54:35;27.13;;;12.60;;
17864;SDS011;9058;52.018;4.202;2024-03-22T03:57:00;30.52;;;11.68;;
17864;SDS011;9058;52.018;4.202;2024-03-22T03:59:26;33.72;;;13.35;;
17864;SDS011;9058;52.018;4.202;2024-03-22T04:01:51;27.20;;;12.57;;
17864;SDS011;9058;52.018;4.202;2024-03-22T04:04:16;18.33;;;11.77;;
17864;SDS011;9058;52.018;4.202;2024-03-22T04:06:43;20.80;;;11.15;;
17864;SDS011;9058;52.018;4.202;2024-03-22T04:09:08;20.75;;;10.65;;
17864;SDS011;9058;52.018;4.202;2024-03-22T04:11:34;24.88;;;13.00;;
17864;SDS011;9058;52.018;4.202;2024-03-22T04:17:01;29.15;;;13.23;;
17864;SDS011;9058;52.018;4.202;2024-03-22T04:19:27;22.25;;;12.88;;
17864;SDS011;9058;52.018;4.202;2024-03-22T04:21:52;19.55;;;13.13;;
17864;SDS011;9058;52.018;4.202;2024-03-22T04:24:17;29.02;;;13.52;;
17864;SDS011;9058;52.018;4.202;2024-03-22T04:26:43;23.95;;;14.13;;
17864;SDS011;9058;52.018;4.202;2024-03-22T04:29:08;24.52;;;13.20;;
17864;SDS011;9058;52.018;4.202;2024-03-22T04:31:33;29.88;;;14.43;;
17864;SDS011;9058;52.018;4.202;2024-03-22T04:33:58;24.80;;;13.90;;
17864;SDS011;9058;52.018;4.202;2024-03-22T04:36:24;22.88;;;13.70;;
17864;SDS011;9058;52.018;4.202;2024-03-22T04:38:50;35.38;;;12.73;;
17864;SDS011;9058;52.018;4.202;2024-03-22T04:41:15;20.42;;;12.23;;
17864;SDS011;9058;52.018;4.202;2024-03-22T04:43:41;26.67;;;15.77;;
17864;SDS011;9058;52.018;4.202;2024-03-22T04:46:06;25.17;;;13.00;;
17864;SDS011;9058;52.018;4.202;2024-03-22T04:48:31;25.85;;;12.95;;
17864;SDS011;9058;52.018;4.202;2024-03-22T04:50:56;23.38;;;14.13;;
17864;SDS011;9058;52.018;4.202;2024-03-22T04:53:22;21.83;;;13.48;;
17864;SDS011;9058;52.018;4.202;2024-03-22T04:55:47;29.10;;;14.52;;
17864;SDS011;9058;52.018;4.202;2024-03-22T04:58:19;29.05;;;13.23;;
17864;SDS011;9058;52.018;4.202;2024-03-22T05:00:45;28.48;;;11.93;;
17864;SDS011;9058;52.018;4.202;2024-03-22T05:03:10;27.25;;;14.48;;
17864;SDS011;9058;52.018;4.202;2024-03-22T05:05:36;24.15;;;12.18;;
17864;SDS011;9058;52.018;4.202;2024-03-22T05:08:05;25.35;;;13.73;;
17864;SDS011;9058;52.018;4.202;2024-03-22T05:10:40;26.30;;;11.48;;
17864;SDS011;9058;52.018;4.202;2024-03-22T05:13:05;26.60;;;12.68;;
17864;SDS011;9058;52.018;4.202;2024-03-22T05:15:30;25.85;;;12.38;;
17864;SDS011;9058;52.018;4.202;2024-03-22T05:17:56;26.27;;;13.30;;
17864;SDS011;9058;52.018;4.202;2024-03-22T05:20:22;24.85;;;12.02;;
17864;SDS011;9058;52.018;4.202;2024-03-22T05:22:47;29.17;;;12.63;;
17864;SDS011;9058;52.018;4.202;2024-03-22T05:25:13;26.50;;;11.68;;
17864;SDS011;9058;52.018;4.202;2024-03-22T05:27:40;28.27;;;13.38;;
17864;SDS011;9058;52.018;4.202;2024-03-22T05:30:05;24.92;;;12.60;;
17864;SDS011;9058;52.018;4.202;2024-03-22T05:32:31;22.98;;;13.93;;
17864;SDS011;9058;52.018;4.202;2024-03-22T05:34:56;28.08;;;13.63;;
17864;SDS011;9058;52.018;4.202;2024-03-22T05:37:21;26.92;;;11.93;;
17864;SDS011;9058;52.018;4.202;2024-03-22T05:39:46;23.52;;;12.10;;
17864;SDS011;9058;52.018;4.202;2024-03-22T05:42:12;27.10;;;13.10;;
17864;SDS011;9058;52.018;4.202;2024-03-22T05:44:37;20.73;;;11.60;;
17864;SDS011;9058;52.018;4.202;2024-03-22T05:47:03;20.02;;;11.98;;
17864;SDS011;9058;52.018;4.202;2024-03-22T05:49:28;23.38;;;11.10;;
17864;SDS011;9058;52.018;4.202;2024-03-22T05:51:54;22.17;;;11.48;;
17864;SDS011;9058;52.018;4.202;2024-03-22T05:54:19;22.63;;;11.27;;
17864;SDS011;9058;52.018;4.202;2024-03-22T05:56:45;25.85;;;10.63;;
17864;SDS011;9058;52.018;4.202;2024-03-22T05:59:10;22.33;;;11.02;;
17864;SDS011;9058;52.018;4.202;2024-03-22T06:01:36;21.55;;;10.85;;
17864;SDS011;9058;52.018;4.202;2024-03-22T06:04:03;22.63;;;10.93;;
17864;SDS011;9058;52.018;4.202;2024-03-22T06:06:28;23.23;;;9.90;;
17864;SDS011;9058;52.018;4.202;2024-03-22T06:08:54;22.13;;;11.07;;
17864;SDS011;9058;52.018;4.202;2024-03-22T06:11:21;23.27;;;11.60;;
17864;SDS011;9058;52.018;4.202;2024-03-22T06:13:47;18.50;;;11.75;;
17864;SDS011;9058;52.018;4.202;2024-03-22T06:16:12;16.02;;;10.27;;
17864;SDS011;9058;52.018;4.202;2024-03-22T06:18:38;18.40;;;9.63;;
17864;SDS011;9058;52.018;4.202;2024-03-22T06:21:03;24.80;;;11.15;;
17864;SDS011;9058;52.018;4.202;2024-03-22T06:23:30;21.27;;;10.80;;
17864;SDS011;9058;52.018;4.202;2024-03-22T06:25:55;27.38;;;10.82;;
17864;SDS011;9058;52.018;4.202;2024-03-22T06:28:21;22.10;;;9.25;;
17864;SDS011;9058;52.018;4.202;2024-03-22T06:30:47;22.88;;;8.50;;
17864;SDS011;9058;52.018;4.202;2024-03-22T06:33:12;18.30;;;8.88;;
17864;SDS011;9058;52.018;4.202;2024-03-22T06:35:37;22.42;;;10.13;;
17864;SDS011;9058;52.018;4.202;2024-03-22T06:38:02;16.15;;;9.23;;
17864;SDS011;9058;52.018;4.202;2024-03-22T06:40:29;21.90;;;10.20;;
17864;SDS011;9058;52.018;4.202;2024-03-22T06:42:55;27.25;;;10.40;;
17864;SDS011;9058;52.018;4.202;2024-03-22T06:45:20;19.38;;;10.98;;
17864;SDS011;9058;52.018;4.202;2024-03-22T06:47:45;22.63;;;11.02;;
17864;SDS011;9058;52.018;4.202;2024-03-22T06:50:10;23.70;;;10.85;;
17864;SDS011;9058;52.018;4.202;2024-03-22T06:52:36;17.90;;;9.40;;
17864;SDS011;9058;52.018;4.202;2024-03-22T06:55:01;17.05;;;10.73;;
17864;SDS011;9058;52.018;4.202;2024-03-22T06:57:26;18.75;;;9.45;;
17864;SDS011;9058;52.018;4.202;2024-03-22T06:59:52;25.05;;;10.32;;
17864;SDS011;9058;52.018;4.202;2024-03-22T07:02:17;26.02;;;10.73;;
17864;SDS011;9058;52.018;4.202;2024-03-22T07:04:43;21.63;;;11.15;;
17864;SDS011;9058;52.018;4.202;2024-03-22T07:07:08;21.27;;;10.20;;
17864;SDS011;9058;52.018;4.202;2024-03-22T07:09:34;20.25;;;10.82;;
17864;SDS011;9058;52.018;4.202;2024-03-22T07:11:59;13.48;;;9.15;;
17864;SDS011;9058;52.018;4.202;2024-03-22T07:14:25;23.83;;;9.95;;
17864;SDS011;9058;52.018;4.202;2024-03-22T07:16:50;23.25;;;9.32;;
17864;SDS011;9058;52.018;4.202;2024-03-22T07:19:16;19.27;;;9.18;;
17864;SDS011;9058;52.018;4.202;2024-03-22T07:21:41;19.48;;;9.98;;
17864;SDS011;9058;52.018;4.202;2024-03-22T07:24:06;20.40;;;10.25;;
17864;SDS011;9058;52.018;4.202;2024-03-22T07:26:31;20.30;;;10.00;;
17864;SDS011;9058;52.018;4.202;2024-03-22T07:28:57;21.70;;;10.63;;
17864;SDS011;9058;52.018;4.202;2024-03-22T07:31:22;24.65;;;11.55;;
17864;SDS011;9058;52.018;4.202;2024-03-22T07:33:47;13.70;;;10.38;;
17864;SDS011;9058;52.018;4.202;2024-03-22T07:36:15;17.48;;;10.15;;
17864;SDS011;9058;52.018;4.202;2024-03-22T07:38:41;18.73;;;10.75;;
17864;SDS011;9058;52.018;4.202;2024-03-22T07:41:06;20.88;;;11.90;;
17864;SDS011;9058;52.018;4.202;2024-03-22T07:43:32;18.60;;;11.73;;
17864;SDS011;9058;52.018;4.202;2024-03-22T07:45:57;20.25;;;10.73;;
17864;SDS011;9058;52.018;4.202;2024-03-22T07:48:23;21.15;;;11.93;;
17864;SDS011;9058;52.018;4.202;2024-03-22T07:50:55;21.42;;;11.43;;
17864;SDS011;9058;52.018;4.202;2024-03-22T07:53:20;19.00;;;11.75;;
17864;SDS011;9058;52.018;4.202;2024-03-22T07:55:46;22.20;;;12.75;;
17864;SDS011;9058;52.018;4.202;2024-03-22T07:58:11;28.10;;;13.13;;
17864;SDS011;9058;52.018;4.202;2024-03-22T08:00:36;24.08;;;12.25;;
17864;SDS011;9058;52.018;4.202;2024-03-22T08:03:01;32.45;;;13.60;;
17864;SDS011;9058;52.018;4.202;2024-03-22T08:05:27;22.77;;;12.35;;
17864;SDS011;9058;52.018;4.202;2024-03-22T08:07:52;22.85;;;12.07;;
17864;SDS011;9058;52.018;4.202;2024-03-22T08:10:17;21.45;;;11.23;;
17864;SDS011;9058;52.018;4.202;2024-03-22T08:12:43;18.90;;;10.98;;
17864;SDS011;9058;52.018;4.202;2024-03-22T08:15:08;18.27;;;11.00;;
17864;SDS011;9058;52.018;4.202;2024-03-22T08:17:33;24.67;;;13.32;;
17864;SDS011;9058;52.018;4.202;2024-03-22T08:19:59;19.08;;;12.20;;
17864;SDS011;9058;52.018;4.202;2024-03-22T08:22:25;24.33;;;13.13;;
17864;SDS011;9058;52.018;4.202;2024-03-22T08:24:50;20.20;;;12.75;;
17864;SDS011;9058;52.018;4.202;2024-03-22T08:27:15;26.05;;;12.88;;
17864;SDS011;9058;52.018;4.202;2024-03-22T08:29:41;20.27;;;12.70;;
17864;SDS011;9058;52.018;4.202;2024-03-22T08:32:06;24.02;;;14.48;;
17864;SDS011;9058;52.018;4.202;2024-03-22T08:34:31;23.35;;;12.75;;
17864;SDS011;9058;52.018;4.202;2024-03-22T08:36:58;20.98;;;12.65;;
17864;SDS011;9058;52.018;4.202;2024-03-22T08:39:23;19.63;;;14.30;;
17864;SDS011;9058;52.018;4.202;2024-03-22T08:41:49;22.17;;;12.77;;
17864;SDS011;9058;52.018;4.202;2024-03-22T08:44:14;19.50;;;11.68;;
17864;SDS011;9058;52.018;4.202;2024-03-22T08:46:40;24.98;;;13.27;;
17864;SDS011;9058;52.018;4.202;2024-03-22T08:49:05;24.70;;;12.00;;
17864;SDS011;9058;52.018;4.202;2024-03-22T08:51:30;21.38;;;13.32;;
17864;SDS011;9058;52.018;4.202;2024-03-22T08:53:55;22.77;;;11.85;;
17864;SDS011;9058;52.018;4.202;2024-03-22T08:56:21;27.08;;;13.45;;
17864;SDS011;9058;52.018;4.202;2024-03-22T08:58:46;20.77;;;13.60;;
17864;SDS011;9058;52.018;4.202;2024-03-22T09:01:11;21.27;;;12.90;;
17864;SDS011;9058;52.018;4.202;2024-03-22T09:03:37;26.58;;;11.93;;
17864;SDS011;9058;52.018;4.202;2024-03-22T09:06:02;24.50;;;13.63;;
17864;SDS011;9058;52.018;4.202;2024-03-22T09:08:28;20.55;;;13.52;;
17864;SDS011;9058;52.018;4.202;2024-03-22T09:10:54;22.00;;;12.23;;
17864;SDS011;9058;52.018;4.202;2024-03-22T09:13:19;20.63;;;13.02;;
17864;SDS011;9058;52.018;4.202;2024-03-22T09:15:45;18.35;;;13.93;;
17864;SDS011;9058;52.018;4.202;2024-03-22T09:18:10;18.95;;;13.35;;
17864;SDS011;9058;52.018;4.202;2024-03-22T09:20:35;16.52;;;13.00;;
17864;SDS011;9058;52.018;4.202;2024-03-22T09:23:01;19.42;;;13.32;;
17864;SDS011;9058;52.018;4.202;2024-03-22T09:25:27;24.90;;;14.75;;
17864;SDS011;9058;52.018;4.202;2024-03-22T09:27:52;24.70;;;13.70;;
17864;SDS011;9058;52.018;4.202;2024-03-22T09:30:17;20.88;;;13.10;;
17864;SDS011;9058;52.018;4.202;2024-03-22T09:32:43;22.48;;;13.45;;
17864;SDS011;9058;52.018;4.202;2024-03-22T09:35:08;25.08;;;13.82;;
17864;SDS011;9058;52.018;4.202;2024-03-22T09:37:34;22.33;;;13.73;;
17864;SDS011;9058;52.018;4.202;2024-03-22T09:39:59;23.95;;;14.23;;
17864;SDS011;9058;52.018;4.202;2024-03-22T09:42:24;21.75;;;14.48;;
17864;SDS011;9058;52.018;4.202;2024-03-22T09:44:53;23.52;;;14.75;;
17864;SDS011;9058;52.018;4.202;2024-03-22T09:47:19;27.00;;;14.07;;
17864;SDS011;9058;52.018;4.202;2024-03-22T09:49:46;25.17;;;13.68;;
17864;SDS011;9058;52.018;4.202;2024-03-22T09:52:13;21.92;;;13.73;;
17864;SDS011;9058;52.018;4.202;2024-03-22T09:54:41;19.30;;;13.35;;
17864;SDS011;9058;52.018;4.202;2024-03-22T09:57:07;22.35;;;15.13;;
17864;SDS011;9058;52.018;4.202;2024-03-22T09:59:32;21.55;;;12.77;;
17864;SDS011;9058;52.018;4.202;2024-03-22T10:01:59;26.52;;;15.23;;
17864;SDS011;9058;52.018;4.202;2024-03-22T10:04:25;19.67;;;12.45;;
17864;SDS011;9058;52.018;4.202;2024-03-22T10:06:51;24.52;;;14.45;;
17864;SDS011;9058;52.018;4.202;2024-03-22T10:09:16;26.75;;;15.05;;
17864;SDS011;9058;52.018;4.202;2024-03-22T10:11:43;22.20;;;14.13;;
17864;SDS011;9058;52.018;4.202;2024-03-22T10:14:09;24.55;;;13.70;;
17864;SDS011;9058;52.018;4.202;2024-03-22T10:16:35;24.42;;;14.98;;
17864;SDS011;9058;52.018;4.202;2024-03-22T10:19:00;24.42;;;14.00;;
17864;SDS011;9058;52.018;4.202;2024-03-22T10:21:26;25.52;;;14.35;;
17864;SDS011;9058;52.018;4.202;2024-03-22T10:23:53;22.67;;;13.85;;
17864;SDS011;9058;52.018;4.202;2024-03-22T10:26:18;24.92;;;15.63;;
17864;SDS011;9058;52.018;4.202;2024-03-22T10:28:44;25.77;;;15.07;;
17864;SDS011;9058;52.018;4.202;2024-03-22T10:31:10;24.45;;;14.52;;
17864;SDS011;9058;52.018;4.202;2024-03-22T10:33:35;26.25;;;15.60;;
17864;SDS011;9058;52.018;4.202;2024-03-22T10:38:50;21.98;;;15.30;;
17864;SDS011;9058;52.018;4.202;2024-03-22T10:41:16;25.67;;;14.80;;
17864;SDS011;9058;52.018;4.202;2024-03-22T10:43:42;27.60;;;16.17;;
17864;SDS011;9058;52.018;4.202;2024-03-22T10:46:07;20.25;;;13.93;;
17864;SDS011;9058;52.018;4.202;2024-03-22T10:48:33;22.95;;;15.98;;
17864;SDS011;9058;52.018;4.202;2024-03-22T10:50:59;23.15;;;15.27;;
17864;SDS011;9058;52.018;4.202;2024-03-22T10:53:25;29.05;;;15.15;;
17864;SDS011;9058;52.018;4.202;2024-03-22T10:55:50;27.83;;;15.85;;
17864;SDS011;9058;52.018;4.202;2024-03-22T10:58:17;23.65;;;14.27;;
17864;SDS011;9058;52.018;4.202;2024-03-22T11:00:43;28.80;;;16.33;;
17864;SDS011;9058;52.018;4.202;2024-03-22T11:03:09;28.15;;;15.85;;
17864;SDS011;9058;52.018;4.202;2024-03-22T11:05:44;28.90;;;15.75;;
17864;SDS011;9058;52.018;4.202;2024-03-22T11:08:09;27.95;;;15.65;;
17864;SDS011;9058;52.018;4.202;2024-03-22T11:10:35;28.85;;;16.45;;
17864;SDS011;9058;52.018;4.202;2024-03-22T11:13:01;25.00;;;15.52;;
17864;SDS011;9058;52.018;4.202;2024-03-22T11:15:29;25.60;;;15.13;;
17864;SDS011;9058;52.018;4.202;2024-03-22T11:17:54;24.92;;;15.02;;
17864;SDS011;9058;52.018;4.202;2024-03-22T11:20:19;24.13;;;14.57;;
17864;SDS011;9058;52.018;4.202;2024-03-22T11:22:44;22.27;;;14.80;;
17864;SDS011;9058;52.018;4.202;2024-03-22T11:25:10;29.00;;;16.15;;
17864;SDS011;9058;52.018;4.202;2024-03-22T11:27:35;30.08;;;14.88;;
17864;SDS011;9058;52.018;4.202;2024-03-22T11:30:01;27.45;;;16.02;;
17864;SDS011;9058;52.018;4.202;2024-03-22T11:32:26;20.70;;;16.02;;
17864;SDS011;9058;52.018;4.202;2024-03-22T11:34:51;22.23;;;16.08;;
17864;SDS011;9058;52.018;4.202;2024-03-22T11:37:17;22.67;;;16.92;;
17864;SDS011;9058;52.018;4.202;2024-03-22T11:39:42;31.15;;;18.10;;
17864;SDS011;9058;52.018;4.202;2024-03-22T11:42:08;23.65;;;17.35;;
17864;SDS011;9058;52.018;4.202;2024-03-22T11:44:34;32.63;;;16.60;;
17864;SDS011;9058;52.018;4.202;2024-03-22T11:47:00;24.90;;;16.75;;
17864;SDS011;9058;52.018;4.202;2024-03-22T11:49:25;27.90;;;16.27;;
17864;SDS011;9058;52.018;4.202;2024-03-22T11:51:51;27.02;;;16.38;;
17864;SDS011;9058;52.018;4.202;2024-03-22T11:54:18;24.38;;;16.98;;
17864;SDS011;9058;52.018;4.202;2024-03-22T11:56:45;23.40;;;16.33;;
17864;SDS011;9058;52.018;4.202;2024-03-22T11:59:10;22.05;;;16.10;;
17864;SDS011;9058;52.018;4.202;2024-03-22T12:01:35;29.65;;;17.60;;
17864;SDS011;9058;52.018;4.202;2024-03-22T12:04:01;25.98;;;16.15;;
17864;SDS011;9058;52.018;4.202;2024-03-22T12:06:26;24.00;;;16.85;;
17864;SDS011;9058;52.018;4.202;2024-03-22T12:08:51;28.70;;;15.90;;
17864;SDS011;9058;52.018;4.202;2024-03-22T12:11:17;26.48;;;15.55;;
17864;SDS011;9058;52.018;4.202;2024-03-22T12:13:42;33.97;;;18.10;;
17864;SDS011;9058;52.018;4.202;2024-03-22T12:16:07;25.15;;;15.15;;
17864;SDS011;9058;52.018;4.202;2024-03-22T12:18:33;25.90;;;16.88;;
17864;SDS011;9058;52.018;4.202;2024-03-22T12:20:58;23.48;;;16.15;;
17864;SDS011;9058;52.018;4.202;2024-03-22T12:23:24;26.55;;;17.90;;
17864;SDS011;9058;52.018;4.202;2024-03-22T12:25:49;28.30;;;16.42;;
17864;SDS011;9058;52.018;4.202;2024-03-22T12:28:15;29.17;;;16.35;;
17864;SDS011;9058;52.018;4.202;2024-03-22T12:30:40;25.83;;;16.27;;
17864;SDS011;9058;52.018;4.202;2024-03-22T12:33:06;30.77;;;17.45;;
17864;SDS011;9058;52.018;4.202;2024-03-22T12:35:35;28.92;;;15.85;;
17864;SDS011;9058;52.018;4.202;2024-03-22T12:38:00;33.05;;;17.65;;
17864;SDS011;9058;52.018;4.202;2024-03-22T12:40:26;27.95;;;17.05;;
17864;SDS011;9058;52.018;4.202;2024-03-22T12:42:51;30.52;;;16.40;;
17864;SDS011;9058;52.018;4.202;2024-03-22T12:45:17;38.92;;;17.48;;
17864;SDS011;9058;52.018;4.202;2024-03-22T12:47:42;31.73;;;17.58;;
17864;SDS011;9058;52.018;4.202;2024-03-22T12:50:07;30.65;;;17.05;;
17864;SDS011;9058;52.018;4.202;2024-03-22T12:52:33;26.73;;;14.05;;
17864;SDS011;9058;52.018;4.202;2024-03-22T12:54:58;30.60;;;17.20;;
17864;SDS011;9058;52.018;4.202;2024-03-22T12:57:23;29.05;;;18.38;;
17864;SDS011;9058;52.018;4.202;2024-03-22T12:59:49;27.77;;;16.77;;
17864;SDS011;9058;52.018;4.202;2024-03-22T13:02:14;27.60;;;16.35;;
17864;SDS011;9058;52.018;4.202;2024-03-22T13:04:40;27.48;;;15.40;;
17864;SDS011;9058;52.018;4.202;2024-03-22T13:07:05;29.48;;;17.20;;
17864;SDS011;9058;52.018;4.202;2024-03-22T13:09:31;30.02;;;16.05;;
17864;SDS011;9058;52.018;4.202;2024-03-22T13:11:56;29.92;;;17.38;;
17864;SDS011;9058;52.018;4.202;2024-03-22T13:14:21;32.20;;;16.15;;
17864;SDS011;9058;52.018;4.202;2024-03-22T13:16:47;30.90;;;17.42;;
17864;SDS011;9058;52.018;4.202;2024-03-22T13:19:12;35.72;;;17.48;;
17864;SDS011;9058;52.018;4.202;2024-03-22T13:21:39;38.78;;;18.48;;
17864;SDS011;9058;52.018;4.202;2024-03-22T13:24:04;24.10;;;14.68;;
17864;SDS011;9058;52.018;4.202;2024-03-22T13:26:30;30.85;;;16.13;;
17864;SDS011;9058;52.018;4.202;2024-03-22T13:28:55;27.67;;;16.45;;
17864;SDS011;9058;52.018;4.202;2024-03-22T13:31:21;27.02;;;16.73;;
17864;SDS011;9058;52.018;4.202;2024-03-22T13:33:46;33.70;;;17.80;;
17864;SDS011;9058;52.018;4.202;2024-03-22T13:36:13;36.20;;;16.52;;
17864;SDS011;9058;52.018;4.202;2024-03-22T13:38:39;34.40;;;17.85;;
17864;SDS011;9058;52.018;4.202;2024-03-22T13:41:04;27.38;;;16.38;;
17864;SDS011;9058;52.018;4.202;2024-03-22T13:43:31;29.08;;;16.98;;
17864;SDS011;9058;52.018;4.202;2024-03-22T13:45:56;29.13;;;18.10;;
17864;SDS011;9058;52.018;4.202;2024-03-22T13:48:22;24.25;;;15.75;;
17864;SDS011;9058;52.018;4.202;2024-03-22T13:50:54;29.10;;;17.50;;
17864;SDS011;9058;52.018;4.202;2024-03-22T13:53:20;41.95;;;30.45;;
17864;SDS011;9058;52.018;4.202;2024-03-22T13:55:47;30.60;;;16.55;;
17864;SDS011;9058;52.018;4.202;2024-03-22T13:58:13;27.77;;;18.27;;
17864;SDS011;9058;52.018;4.202;2024-03-22T14:00:38;27.23;;;18.42;;
17864;SDS011;9058;52.018;4.202;2024-03-22T14:03:03;25.35;;;18.10;;
17864;SDS011;9058;52.018;4.202;2024-03-22T14:05:29;35.78;;;19.08;;
17864;SDS011;9058;52.018;4.202;2024-03-22T14:07:54;27.73;;;18.38;;
17864;SDS011;9058;52.018;4.202;2024-03-22T14:10:19;31.70;;;18.40;;
17864;SDS011;9058;52.018;4.202;2024-03-22T14:12:45;39.78;;;20.75;;
17864;SDS011;9058;52.018;4.202;2024-03-22T14:15:12;31.63;;;20.85;;
17864;SDS011;9058;52.018;4.202;2024-03-22T14:17:38;31.67;;;21.10;;
17864;SDS011;9058;52.018;4.202;2024-03-22T14:20:03;33.88;;;20.10;;
17864;SDS011;9058;52.018;4.202;2024-03-22T14:22:37;31.90;;;21.13;;
17864;SDS011;9058;52.018;4.202;2024-03-22T14:25:02;38.55;;;20.88;;
17864;SDS011;9058;52.018;4.202;2024-03-22T14:27:28;28.95;;;20.48;;
17864;SDS011;9058;52.018;4.202;2024-03-22T14:29:53;33.70;;;21.10;;
17864;SDS011;9058;52.018;4.202;2024-03-22T14:32:19;32.47;;;20.10;;